Latest Weather Observations for Marble Bar

IDW60801

Issued at 2:35 pm WST Wednesday 3 September 2014 (issued every 30 minutes, with the page automatically refreshed every 10 minutes)

About weather observations | Map of weather stations | Latest weather observations for WA | Other Formats
Station Details ID: 004106 Name: MARBLE BAR Lat: -21.18 Lon: 119.75 Height: 182.3 m
Data from the previous 72 hours. | See also: Recent months at Marble Bar
Date/Time
WST
Temp
°C
App
Temp
°C
Dew
Point
Rel
Hum
%
Delta-T
°C
Wind Press
QNH
hPa
Press
MSL
hPa
Rain
since 9 am
mm
Dir
 
Spd
km/h
Gust
km/h
Spd
kts
Gust
kts
03/02:30pm 36.2 30.7 -9.4 5 19.7 NNW 13 20 7 11 1013.6 1012.6 0.0
03/02:00pm 35.9 31.2 -9.6 5 19.5 N 9 19 5 10 1014.0 1013.0 0.0
03/01:30pm 35.8 30.7 -9.6 5 19.5 WNW 11 17 6 9 1014.2 1013.2 0.0
03/01:00pm 35.9 30.8 -9.6 5 19.5 N 11 20 6 11 1014.6 1013.7 0.0
03/12:30pm 35.9 31.7 -9.6 5 19.5 WSW 6 17 3 9 1015.1 1014.2 0.0
03/12:00pm 35.1 31.5 -7.8 6 18.8 W 4 11 2 6 1015.7 1014.8 0.0
03/11:30am 34.8 30.2 -8.0 6 18.7 ENE 9 22 5 12 1016.2 1015.3 0.0
03/11:00am 33.8 29.7 -6.8 7 17.9 SE 7 15 4 8 1016.6 1015.7 0.0
03/10:30am 32.8 28.8 -7.5 7 17.4 SSE 6 11 3 6 1017.1 1016.2 0.0
03/10:00am 31.6 27.5 -6.6 8 16.6 S 7 15 4 8 1017.3 1016.4 0.0
03/09:30am 29.8 26.9 -3.8 11 15.1 S 2 6 1 3 1017.5 1016.6 0.0
03/09:00am 27.1 24.1 -4.7 12 13.7 SSE 2 6 1 3 1017.8 1016.8 0.0
03/08:30am 25.9 22.7 -3.6 14 12.9 NE 4 7 2 4 1017.8 1016.8 0.0
03/08:00am 22.8 20.5 -2.7 18 11.0 CALM 0 0 0 0 1017.5 1016.6 0.0
03/07:30am 20.2 16.6 -2.2 22 9.6 SSW 7 11 4 6 1017.2 1016.3 0.0
03/07:00am 17.7 13.7 -2.0 26 8.2 SSW 9 11 5 6 1017.1 1016.2 0.0
03/06:30am 14.6 11.6 -1.5 33 6.6 S 4 7 2 4 1017.0 1016.1 0.0
03/06:00am 14.5 11.8 -2.4 31 6.8 S 2 4 1 2 1016.9 1016.0 0.0
03/05:30am 14.4 11.4 -1.6 33 6.6 SSW 4 7 2 4 1016.8 1015.9 0.0
03/05:00am 15.3 11.9 -2.2 30 7.1 SSW 6 13 3 7 1016.6 1015.7 0.0
03/04:30am 15.3 12.3 -2.2 30 7.1 S 4 6 2 3 1016.3 1015.4 0.0
03/04:00am 15.6 12.9 -2.3 29 7.3 S 2 6 1 3 1016.2 1015.3 0.0
03/03:30am 16.0 12.5 -2.5 28 7.5 SSW 6 7 3 4 1016.1 1015.2 0.0
03/03:00am 16.1 13.8 -2.4 28 7.6 CALM 0 4 0 2 1016.3 1015.4 0.0
03/02:30am 16.7 13.3 -2.4 27 7.9 SSW 6 7 3 4 1016.4 1015.5 0.0
03/02:00am 17.0 13.6 -2.1 27 7.9 S 6 7 3 4 1016.4 1015.5 0.0
03/01:30am 17.6 14.1 -1.6 27 8.1 S 7 9 4 5 1016.5 1015.6 0.0
03/01:00am 16.3 13.1 -0.4 32 7.1 S 6 7 3 4 1016.9 1016.0 0.0
03/12:30am 16.3 13.8 -0.8 31 7.3 SSE 2 4 1 2 1017.0 1016.1 0.0
03/12:00am 16.1 13.2 -1.0 31 7.2 S 4 6 2 3 1017.2 1016.3 0.0
 
Date/Time
WST
Temp
°C
App
Temp
°C
Dew
Point
Rel
Hum
%
Delta-T
°C
Wind Press
QNH
hPa
Press
MSL
hPa
Rain
since 9 am
mm
Dir
 
Spd
km/h
Gust
km/h
Spd
kts
Gust
kts
02/11:30pm 16.9 14.0 -0.8 30 7.6 SSE 4 4 2 2 1017.2 1016.3 0.0
02/11:00pm 17.1 14.6 -1.1 29 7.7 SE 2 4 1 2 1017.3 1016.4 0.0
02/10:30pm 18.2 15.2 -1.6 26 8.4 SSE 4 4 2 2 1017.3 1016.4 0.0
02/10:00pm 18.9 16.3 -1.5 25 8.7 ESE 2 4 1 2 1017.3 1016.4 0.0
02/09:30pm 19.6 16.0 -2.1 23 9.2 SSE 7 7 4 4 1017.3 1016.4 0.0
02/09:00pm 20.3 18.0 -2.7 21 9.7 CALM 0 4 0 2 1017.1 1016.2 0.0
02/08:30pm 22.4 19.9 -3.8 17 11.1 CALM 0 0 0 0 1016.8 1015.9 0.0
02/08:00pm 25.1 22.4 -6.3 12 13.0 CALM 0 2 0 1 1016.5 1015.6 0.0
02/07:30pm 27.8 23.2 -7.9 9 14.7 N 9 11 5 6 1016.1 1015.2 0.0
02/07:00pm 28.2 24.3 -6.3 10 14.6 NW 6 9 3 5 1015.8 1014.9 0.0
02/06:30pm 25.8 23.6 -1.9 16 12.5 CALM 0 0 0 0 1015.3 1014.4 0.0
02/06:00pm 29.4 26.8 -5.4 10 15.2 CALM 0 0 0 0 1015.0 1014.1 0.0
02/05:30pm 32.8 29.4 -5.7 8 17.2 W 4 6 2 3 1014.9 1014.0 0.0
02/05:00pm 34.4 30.2 -8.3 6 18.5 W 7 13 4 7 1014.7 1013.8 0.0
02/04:30pm 34.7 29.5 -10.4 5 18.9 NNW 11 17 6 9 1014.5 1013.6 0.0
02/04:00pm 35.2 29.7 -10.1 5 19.2 N 13 24 7 13 1014.4 1013.5 0.0
02/03:30pm 35.7 30.2 -9.7 5 19.4 NNW 13 22 7 12 1014.4 1013.5 0.0
02/03:00pm 36.0 30.9 -9.5 5 19.6 NNW 11 22 6 12 1014.4 1013.5 0.0
02/02:30pm 36.2 30.3 -9.4 5 19.7 N 15 32 8 17 1014.5 1013.6 0.0
02/02:00pm 36.2 31.5 -9.4 5 19.7 NNE 9 19 5 10 1014.8 1013.9 0.0
02/01:30pm 36.1 31.0 -9.4 5 19.6 NNE 11 22 6 12 1015.3 1014.4 0.0
02/01:00pm 34.8 28.9 -10.3 5 19.0 NNE 15 26 8 14 1015.7 1014.8 0.0
02/12:30pm 35.1 28.6 -7.8 6 18.8 N 19 28 10 15 1016.2 1015.3 0.0
02/12:00pm 34.0 28.2 -8.6 6 18.3 NE 15 22 8 12 1016.7 1015.8 0.0
02/11:30am 33.6 29.7 -6.9 7 17.8 E 6 11 3 6 1017.2 1016.3 0.0
02/11:00am 32.9 28.5 -5.7 8 17.2 E 9 15 5 8 1017.6 1016.7 0.0
02/10:30am 32.0 27.3 -4.8 9 16.6 ESE 11 19 6 10 1018.1 1017.1 0.0
02/10:00am 31.0 26.3 -5.5 9 16.1 ESE 11 19 6 10 1018.4 1017.4 0.0
02/09:30am 29.7 26.0 -2.7 12 14.9 E 7 13 4 7 1018.6 1017.6 0.0
02/09:00am 27.6 25.3 -2.3 14 13.6 CALM 0 4 0 2 1018.4 1017.4 0.0
02/08:30am 24.8 22.6 -1.9 17 11.9 CALM 0 0 0 0 1018.4 1017.4 0.0
02/08:00am 21.5 19.4 -1.1 22 10.0 CALM 0 0 0 0 1018.2 1017.2 0.0
02/07:30am 19.2 16.8 -0.2 27 8.6 E 2 4 1 2 1018.0 1017.0 0.0
02/07:00am 15.4 13.5 0.8 37 6.3 CALM 0 0 0 0 1017.4 1016.5 0.0
02/06:30am 12.6 10.6 0.0 42 5.3 CALM 0 4 0 2 1017.2 1016.3 0.0
02/06:00am 11.4 9.4 0.2 46 4.6 CALM 0 0 0 0 1016.9 1016.0 0.0
02/05:30am 12.4 10.0 -0.1 42 5.2 S 2 4 1 2 1016.7 1015.8 0.0
02/05:00am 13.7 11.2 -1.1 36 6.1 S 2 4 1 2 1016.5 1015.6 0.0
02/04:30am 14.5 11.6 -1.2 34 6.5 SSE 4 6 2 3 1016.3 1015.4 0.0
02/04:00am 15.7 13.1 -1.8 30 7.2 S 2 4 1 2 1016.0 1015.1 0.0
02/03:30am 15.3 13.1 -1.7 31 7.0 CALM 0 6 0 3 1015.9 1015.0 0.0
02/03:00am 15.4 12.9 -1.2 32 6.9 S 2 6 1 3 1016.2 1015.3 0.0
02/02:30am 14.9 12.4 -0.8 34 6.6 S 2 6 1 3 1016.2 1015.3 0.0
02/02:00am 14.5 11.8 0.0 37 6.1 SSE 4 6 2 3 1016.5 1015.6 0.0
02/01:30am 14.0 11.7 0.3 39 5.8 SSE 2 6 1 3 1016.4 1015.5 0.0
02/01:00am 14.6 11.8 -0.7 35 6.4 SSE 4 4 2 2 1016.5 1015.6 0.0
02/12:30am 15.2 12.8 -0.5 34 6.6 SSE 2 4 1 2 1016.7 1015.8 0.0
02/12:00am 15.6 13.2 -0.6 33 6.8 SE 2 6 1 3 1016.8 1015.9 0.0
 
Date/Time
WST
Temp
°C
App
Temp
°C
Dew
Point
Rel
Hum
%
Delta-T
°C
Wind Press
QNH
hPa
Press
MSL
hPa
Rain
since 9 am
mm
Dir
 
Spd
km/h
Gust
km/h
Spd
kts
Gust
kts
01/11:30pm 16.0 13.5 -0.7 32 7.1 SSE 2 7 1 4 1017.0 1016.1 0.0
01/11:00pm 16.2 13.8 -0.5 32 7.1 SSE 2 4 1 2 1017.1 1016.2 0.0
01/10:30pm 16.8 14.7 -0.9 30 7.5 CALM 0 0 0 0 1017.0 1016.1 0.0
01/10:00pm 18.1 15.5 -1.7 26 8.4 SSE 2 4 1 2 1016.9 1016.0 0.0
01/09:30pm 19.4 16.8 -1.7 24 9.0 SSE 2 4 1 2 1016.9 1016.0 0.0
01/09:00pm 21.8 19.4 -3.5 18 10.7 CALM 0 2 0 1 1016.6 1015.7 0.0
01/08:30pm 24.3 20.0 -4.9 14 12.3 N 9 13 5 7 1016.5 1015.6 0.0
01/08:00pm 22.9 19.7 -3.4 17 11.2 E 4 15 2 8 1016.1 1015.2 0.0
01/07:30pm 21.3 18.8 -1.3 22 9.9 SE 2 4 1 2 1015.6 1014.7 0.0
01/07:00pm 23.1 20.8 -2.5 18 11.2 CALM 0 0 0 0 1015.2 1014.3 0.0
01/06:30pm 25.2 21.8 -5.1 13 12.8 N 4 6 2 3 1014.9 1014.0 0.0
01/06:00pm 28.5 24.5 -7.4 9 15.0 N 6 7 3 4 1014.7 1013.8 0.0
01/05:30pm 30.6 26.6 -7.4 8 16.2 NNE 6 9 3 5 1014.3 1013.4 0.0
01/05:00pm 32.6 28.2 -9.6 6 17.6 NNE 7 13 4 7 1014.1 1013.1 0.0
01/04:30pm 33.2 28.5 -9.2 6 17.9 NE 9 19 5 10 1013.8 1012.8 0.0
01/04:00pm 34.0 29.7 -8.6 6 18.3 E 7 17 4 9 1013.8 1012.8 0.0
01/03:30pm 34.4 30.7 -8.3 6 18.5 SSE 4 15 2 8 1013.9 1012.9 0.0
01/03:00pm 34.3 30.6 -8.4 6 18.4 N 4 11 2 6 1014.1 1013.1 0.0
01/02:30pm 34.1 29.1 -8.5 6 18.3 E 11 19 6 10 1014.4 1013.5 0.0
01/02:00pm 34.5 29.9 -8.2 6 18.5 E 9 17 5 9 1014.7 1013.8 0.0
01/01:30pm 34.0 28.6 -8.6 6 18.3 ENE 13 22 7 12 1015.0 1014.1 0.0
01/01:00pm 33.7 29.0 -8.8 6 18.1 NE 9 19 5 10 1015.3 1014.4 0.0
01/12:30pm 33.0 28.3 -9.3 6 17.8 ENE 9 19 5 10 1015.8 1014.9 0.0
01/12:00pm 33.5 29.4 -7.0 7 17.8 ENE 7 19 4 10 1016.0 1015.1 0.0
01/11:30am 32.4 28.8 -7.8 7 17.3 SSE 4 11 2 6 1016.4 1015.5 0.0
01/11:00am 31.8 27.9 -6.5 8 16.7 SSE 6 11 3 6 1016.8 1015.9 0.0
01/10:30am 30.9 26.8 -7.1 8 16.3 S 7 15 4 8 1017.3 1016.4 0.0
01/10:00am 29.4 24.9 -6.7 9 15.4 S 9 15 5 8 1017.5 1016.6 0.0
01/09:30am 29.0 25.2 -5.7 10 15.0 SSE 6 13 3 7 1017.6 1016.7 0.0
01/09:00am 26.3 23.4 -4.3 13 13.2 S 2 6 1 3 1017.6 1016.7 0.0
01/08:30am 24.2 20.6 -4.0 15 12.1 SSW 6 6 3 3 1017.4 1016.5 0.0
01/08:00am 21.3 18.2 -2.5 20 10.2 S 4 6 2 3 1017.0 1016.1 0.0
01/07:30am 18.1 15.6 -1.2 27 8.3 SSE 2 6 1 3 1016.6 1016.0 0.0
01/07:00am 15.2 12.4 -0.1 35 6.5 S 4 7 2 4 1016.4 1015.8 0.0
01/06:30am 12.7 9.8 -0.9 39 5.6 S 4 6 2 3 1016.2 1015.6 0.0
01/06:00am 11.0 9.0 -0.2 46 4.6 CALM 0 0 0 0 1015.9 1015.3 0.0
01/05:30am 11.1 9.0 -0.7 44 4.8 CALM 0 0 0 0 1015.6 1015.0 0.0
01/05:00am 11.5 9.4 -0.9 42 5.0 CALM 0 4 0 2 1015.5 1014.9 0.0
01/04:30am 12.8 10.2 -1.9 36 5.9 SSE 2 2 1 1 1015.3 1014.7 0.0
01/04:00am 12.1 9.2 -1.4 39 5.4 SSE 4 6 2 3 1015.2 1014.6 0.0
01/03:30am 12.2 9.4 -0.6 41 5.2 SSE 4 6 2 3 1015.0 1014.4 0.0
01/03:00am 12.3 10.2 -0.9 40 5.4 CALM 0 4 0 2 1015.0 1014.4 0.0
01/02:30am 13.6 10.6 -1.6 35 6.2 WNW 4 4 2 2 1015.0 1014.4 0.0
01/02:00am 13.8 11.2 -1.4 35 6.2 ESE 2 6 1 3 1015.1 1014.5 0.0
01/01:30am 15.3 13.0 -2.2 30 7.1 CALM 0 0 0 0 1015.2 1014.6 0.0
01/01:00am 15.3 11.8 -1.7 31 7.0 SSW 7 7 4 4 1015.3 1014.7 0.0
01/12:30am 15.5 11.5 -2.0 30 7.2 SSW 9 9 5 5 1015.5 1014.9 0.0
01/12:00am 15.8 12.8 -1.7 30 7.2 SSE 4 6 2 3 1015.6 1015.0 0.0
 
Date/Time
WST
Temp
°C
App
Temp
°C
Dew
Point
Rel
Hum
%
Delta-T
°C
Wind Press
QNH
hPa
Press
MSL
hPa
Rain
since 9 am
mm
Dir
 
Spd
km/h
Gust
km/h
Spd
kts
Gust
kts
31/11:30pm 15.7 12.8 -1.4 31 7.1 ESE 4 6 2 3 1015.9 1015.3 0.0
31/11:00pm 17.0 14.0 -2.1 27 7.9 ESE 4 6 2 3 1015.9 1015.3 0.0
31/10:30pm 19.5 16.4 -2.8 22 9.4 ESE 4 6 2 3 1015.9 1015.3 0.0
31/10:00pm 18.6 15.5 -2.3 24 8.8 E 4 9 2 5 1015.8 1015.2 0.0
31/09:59pm 18.9 15.8 -2.7 23 9.0 ESE 4 9 2 5 1015.8 1015.2 0.0
31/09:30pm 24.3 20.6 -4.9 14 12.3 W 6 7 3 4 1015.8 1015.2 0.0
31/09:00pm 23.1 19.4 -3.3 17 11.3 WNW 7 13 4 7 1015.6 1015.0 0.0
31/08:30pm 23.3 19.5 -3.9 16 11.6 WNW 7 11 4 6 1015.5 1014.9 0.0
31/08:00pm 22.0 18.8 -3.4 18 10.8 E 4 17 2 9 1015.0 1014.4 0.0
31/07:30pm 20.8 18.6 -1.7 22 9.8 CALM 0 0 0 0 1014.6 1013.9 0.0
31/07:00pm 21.9 19.0 -1.4 21 10.3 SE 4 6 2 3 1014.3 1013.6 0.0
31/06:30pm 24.1 21.6 -4.1 15 12.0 CALM 0 0 0 0 1014.0 1013.3 0.0
31/06:00pm 27.1 24.1 -4.7 12 13.8 N 2 4 1 2 1013.8 1013.1 0.0
31/05:30pm 30.0 26.4 -7.8 8 15.9 NNW 4 6 2 3 1013.5 1012.8 0.0
31/05:00pm 32.0 27.8 -10.0 6 17.3 NNW 6 9 3 5 1013.5 1012.8 0.0
31/04:30pm 32.3 28.1 -9.8 6 17.5 ENE 6 11 3 6 1013.5 1012.8 0.0
31/04:00pm 33.1 28.4 -9.2 6 17.8 E 9 26 5 14 1013.5 1012.8 0.0
31/03:30pm 33.3 28.6 -9.1 6 18.0 NE 9 15 5 8 1013.5 1012.8 0.0
31/03:00pm 32.9 28.6 -9.4 6 17.8 E 7 24 4 13 1013.7 1013.0 0.0

Other Formats:

Comma delimited format used in spreadsheet applications
http://www.bom.gov.au/fwo/IDW60801/IDW60801.95317.axf

JavaScript Object Notation format (JSON) in row-major order
http://www.bom.gov.au/fwo/IDW60801/IDW60801.95317.json